createdAt,value
2023-02-05T00:02:07.232Z,102252.13
2023-02-05T00:04:55.784Z,102249.78
2023-02-05T00:07:44.275Z,102247.75
2023-02-05T00:10:32.734Z,102243.41
2023-02-05T00:13:21.224Z,102201.72
2023-02-05T00:16:10.471Z,102240.94
2023-02-05T00:19:00.313Z,102241.16
2023-02-05T00:21:50.023Z,102235.53
2023-02-05T00:24:38.628Z,102230.31
2023-02-05T00:27:27.204Z,102235.94
2023-02-05T00:30:15.691Z,102235.31
2023-02-05T00:33:04.186Z,102246.34
2023-02-05T00:35:54.061Z,102234.88
2023-02-05T00:38:43.484Z,102248.03
2023-02-05T00:41:31.965Z,102252.56
2023-02-05T00:44:20.461Z,102245.22
2023-02-05T00:47:09.214Z,102238.03
2023-02-05T00:49:57.694Z,102240.69
2023-02-05T00:52:47.454Z,102238.34
2023-02-05T00:55:36.034Z,102236.97
2023-02-05T00:58:24.637Z,102243.13
2023-02-05T01:01:14.287Z,102245.78
2023-02-05T01:04:03.066Z,102169.78
2023-02-05T01:06:51.577Z,102242.06
2023-02-05T01:09:41.442Z,102224.78
2023-02-05T01:12:30.086Z,102226.38
2023-02-05T01:15:18.950Z,102222.66
2023-02-05T01:18:07.425Z,102239.31
2023-02-05T01:20:57.422Z,102233.91
2023-02-05T01:23:45.897Z,102231.00
2023-02-05T01:26:35.677Z,102225.91
2023-02-05T01:29:24.209Z,102209.72
2023-02-05T01:32:12.640Z,102218.53
2023-02-05T01:35:01.155Z,102207.22
2023-02-05T01:37:49.618Z,102191.06
2023-02-05T01:40:38.086Z,102204.13
2023-02-05T01:43:28.301Z,102151.38
2023-02-05T01:46:28.957Z,102199.69
2023-02-05T01:49:20.937Z,102200.28
2023-02-05T01:52:12.863Z,102191.53
2023-02-05T01:55:02.291Z,102186.31
2023-02-05T01:57:51.457Z,102188.22
2023-02-05T02:00:41.292Z,102171.25
2023-02-05T02:03:31.700Z,102176.25
2023-02-05T02:06:20.131Z,102170.50
2023-02-05T02:09:09.016Z,102078.22
2023-02-05T02:11:58.100Z,102180.25
2023-02-05T02:14:50.753Z,102175.47
2023-02-05T02:17:42.355Z,102171.81
2023-02-05T02:20:34.801Z,102160.75
2023-02-05T02:23:28.905Z,102157.66
2023-02-05T02:26:30.104Z,102148.44
2023-02-05T02:29:24.666Z,102145.25
2023-02-05T02:32:18.010Z,102149.94
2023-02-05T02:35:08.985Z,102137.63
2023-02-05T02:38:02.383Z,102128.81
2023-02-05T02:40:52.725Z,102136.06
2023-02-05T02:43:47.586Z,102135.84
2023-02-05T02:46:41.790Z,102103.94
2023-02-05T02:49:33.049Z,102141.03
2023-02-05T02:52:22.952Z,102139.13
2023-02-05T02:55:13.877Z,102146.09
2023-02-05T02:58:03.209Z,102138.66
2023-02-05T03:00:52.784Z,102147.84
2023-02-05T03:03:46.134Z,102147.63
2023-02-05T03:06:34.933Z,102148.66
2023-02-05T03:09:27.627Z,102139.69
2023-02-05T03:12:16.298Z,102130.03
2023-02-05T03:15:05.496Z,102129.50
2023-02-05T03:17:54.640Z,102127.91
2023-02-05T03:20:47.655Z,102125.59
2023-02-05T03:23:36.176Z,102121.47
2023-02-05T03:26:26.646Z,102111.78
2023-02-05T03:29:17.262Z,102108.41
2023-02-05T03:32:16.068Z,102118.78
2023-02-05T03:35:17.566Z,102126.63
2023-02-05T03:38:30.876Z,102102.66
2023-02-05T03:41:22.282Z,102075.50
2023-02-05T03:44:15.788Z,102109.56
2023-02-05T03:47:07.098Z,102108.09
2023-02-05T03:50:02.306Z,102115.06
2023-02-05T03:52:53.200Z,102097.94
2023-02-05T03:55:46.838Z,102115.22
2023-02-05T03:58:37.640Z,102109.16
2023-02-05T04:01:26.639Z,102101.53
2023-02-05T04:04:15.435Z,102056.47
2023-02-05T04:07:04.321Z,102108.13
2023-02-05T04:09:52.783Z,102106.41
2023-02-05T04:12:42.635Z,102101.00
2023-02-05T04:15:31.140Z,102091.38
2023-02-05T04:18:20.113Z,102087.03
2023-02-05T04:21:08.617Z,102087.25
2023-02-05T04:23:57.122Z,102099.09
2023-02-05T04:26:45.656Z,102105.03
2023-02-05T04:29:35.455Z,102113.53
2023-02-05T04:32:23.878Z,102114.69
2023-02-05T04:35:12.331Z,102111.38
2023-02-05T04:38:00.865Z,102126.66
2023-02-05T04:40:49.411Z,102118.81
2023-02-05T04:43:37.869Z,102115.41
2023-02-05T04:46:27.767Z,102112.34
2023-02-05T04:49:16.201Z,102114.16
2023-02-05T04:52:04.899Z,102119.78
2023-02-05T04:54:53.363Z,102122.44
2023-02-05T04:57:42.039Z,102132.59
2023-02-05T05:00:30.524Z,102124.34
2023-02-05T05:03:20.333Z,102117.22
2023-02-05T05:06:09.290Z,102123.78
2023-02-05T05:08:57.852Z,102119.25
2023-02-05T05:11:46.263Z,102103.34
2023-02-05T05:14:34.855Z,102105.47
2023-02-05T05:17:23.341Z,102110.31
2023-02-05T05:20:13.378Z,102109.50
2023-02-05T05:23:01.907Z,102092.00
2023-02-05T05:25:50.609Z,102100.81
2023-02-05T05:28:39.494Z,102114.91
2023-02-05T05:31:28.008Z,102109.81
2023-02-05T05:34:16.700Z,102101.75
2023-02-05T05:37:06.568Z,102089.56
2023-02-05T05:40:12.724Z,102081.38
2023-02-05T05:43:18.811Z,102089.13
2023-02-05T05:46:08.183Z,102081.38
2023-02-05T05:48:58.584Z,102086.91
2023-02-05T05:51:47.025Z,102090.50
2023-02-05T05:54:36.916Z,102086.75
2023-02-05T05:57:25.912Z,102086.66
2023-02-05T06:00:15.785Z,102100.13
2023-02-05T06:03:04.930Z,102098.03
2023-02-05T06:05:53.655Z,102094.41
2023-02-05T06:08:42.151Z,102099.47
2023-02-05T06:11:31.983Z,102093.16
2023-02-05T06:14:20.448Z,102090.81
2023-02-05T06:17:08.967Z,102097.09
2023-02-05T06:19:57.476Z,102090.59
2023-02-05T06:22:46.149Z,102086.66
2023-02-05T06:25:34.804Z,102093.56
2023-02-05T06:28:24.974Z,102077.66
2023-02-05T06:31:13.562Z,102100.44
2023-02-05T06:34:02.234Z,102096.00
2023-02-05T06:36:50.666Z,102095.38
2023-02-05T06:39:39.123Z,102102.69
2023-02-05T06:42:28.418Z,102108.84
2023-02-05T06:45:18.301Z,102110.94
2023-02-05T06:48:06.927Z,102069.53
2023-02-05T06:50:55.349Z,102123.47
2023-02-05T06:53:43.866Z,102116.34
2023-02-05T06:56:32.361Z,102112.84
2023-02-05T06:59:20.943Z,102117.50
2023-02-05T07:02:14.406Z,102116.00
2023-02-05T07:05:03.100Z,102103.72
2023-02-05T07:07:51.578Z,102102.53
2023-02-05T07:10:40.062Z,102099.66
2023-02-05T07:13:29.684Z,102103.97
2023-02-05T07:16:18.232Z,102099.63
2023-02-05T07:19:08.126Z,102083.38
2023-02-05T07:21:56.590Z,102068.69
2023-02-05T07:24:45.469Z,102089.31
2023-02-05T07:27:33.877Z,102083.22
2023-02-05T07:30:22.415Z,102079.41
2023-02-05T07:33:10.867Z,102073.41
2023-02-05T07:36:03.403Z,102076.44
2023-02-05T07:38:51.848Z,102077.63
2023-02-05T07:41:40.304Z,102071.88
2023-02-05T07:44:28.855Z,102087.97
2023-02-05T07:47:17.334Z,102079.44
2023-02-05T07:50:07.055Z,102078.22
2023-02-05T07:52:57.086Z,102083.16
2023-02-05T07:55:45.797Z,102094.03
2023-02-05T07:58:34.291Z,102095.81
2023-02-05T08:01:22.860Z,102096.63
2023-02-05T08:04:11.357Z,102081.31
2023-02-05T08:06:59.855Z,102073.91
2023-02-05T08:09:49.927Z,102084.66
2023-02-05T08:12:38.433Z,102089.19
2023-02-05T08:15:28.155Z,101966.31
2023-02-05T08:18:16.696Z,102082.91
2023-02-05T08:21:05.598Z,102077.25
2023-02-05T08:23:54.136Z,102074.03
2023-02-05T08:26:44.173Z,102070.81
2023-02-05T08:29:33.110Z,102067.19
2023-02-05T08:32:21.578Z,102067.94
2023-02-05T08:35:10.058Z,102056.84
2023-02-05T08:37:58.820Z,102050.44
2023-02-05T08:40:47.269Z,102040.22
2023-02-05T08:43:37.109Z,102044.59
2023-02-05T08:46:29.578Z,102031.56
2023-02-05T08:49:20.259Z,102033.13
2023-02-05T08:52:08.775Z,102038.66
2023-02-05T08:54:57.316Z,102022.84
2023-02-05T08:57:46.156Z,101884.16
2023-02-05T09:00:37.964Z,102021.19
2023-02-05T09:03:26.649Z,102018.31
2023-02-05T09:06:17.158Z,101941.69
2023-02-05T09:09:05.722Z,102010.09
2023-02-05T09:11:54.238Z,101999.31
2023-02-05T09:14:42.789Z,102005.25
2023-02-05T09:17:32.664Z,102001.25
2023-02-05T09:20:21.196Z,101998.13
2023-02-05T09:23:10.954Z,101996.78
2023-02-05T09:25:59.904Z,101961.03
2023-02-05T09:28:48.508Z,101993.50
2023-02-05T09:31:37.508Z,101995.56
2023-02-05T09:34:27.421Z,101988.53
2023-02-05T09:37:16.220Z,101990.94
2023-02-05T09:40:21.646Z,101993.25
2023-02-05T09:43:27.401Z,101985.28
2023-02-05T09:46:22.044Z,102001.59
2023-02-05T09:49:16.573Z,101997.84
2023-02-05T09:52:13.225Z,101987.47
2023-02-05T09:55:04.917Z,101993.59
2023-02-05T09:57:56.319Z,101958.09
2023-02-05T10:00:47.726Z,101975.81
2023-02-05T10:03:44.367Z,101972.56
2023-02-05T10:06:46.453Z,101988.78
2023-02-05T10:10:04.403Z,102005.22
2023-02-05T10:13:26.130Z,101995.78
2023-02-05T10:16:35.423Z,101988.53
2023-02-05T10:19:39.190Z,101983.78
2023-02-05T10:22:28.687Z,101987.88
2023-02-05T10:25:45.418Z,101955.19
2023-02-05T10:28:50.562Z,101981.97
2023-02-05T10:31:43.241Z,101969.84
2023-02-05T10:34:46.462Z,101955.94
2023-02-05T10:37:40.390Z,101843.38
2023-02-05T10:40:32.963Z,101937.44
2023-02-05T10:43:25.017Z,101956.88
2023-02-05T10:46:14.928Z,101952.28
2023-02-05T10:49:08.066Z,101819.81
2023-02-05T10:51:56.542Z,101941.28
2023-02-05T10:54:45.960Z,101941.16
2023-02-05T10:57:36.705Z,101944.78
2023-02-05T11:00:27.627Z,101929.69
2023-02-05T11:03:18.498Z,101918.69
2023-02-05T11:06:10.420Z,101871.16
2023-02-05T11:08:59.038Z,101915.28
2023-02-05T11:11:52.242Z,101908.53
2023-02-05T11:14:45.680Z,101903.78
2023-02-05T11:17:36.550Z,101907.53
2023-02-05T11:20:35.819Z,101901.50
2023-02-05T11:23:25.876Z,101897.41
2023-02-05T11:26:19.986Z,101892.44
2023-02-05T11:29:20.178Z,101892.44
2023-02-05T11:32:21.037Z,101893.38
2023-02-05T11:35:21.137Z,101894.88
2023-02-05T11:38:22.107Z,101892.09
2023-02-05T11:41:11.491Z,101854.63
2023-02-05T11:44:01.227Z,101910.00
2023-02-05T11:46:49.847Z,101885.72
2023-02-05T11:49:41.961Z,101908.31
2023-02-05T11:52:32.572Z,101926.47
2023-02-05T11:55:26.605Z,101905.19
2023-02-05T11:58:31.561Z,101895.88
2023-02-05T12:01:25.928Z,101903.41
2023-02-05T12:04:19.290Z,101783.75
2023-02-05T12:07:12.968Z,101898.50
2023-02-05T12:10:01.418Z,101887.88
2023-02-05T12:12:57.304Z,101896.22
2023-02-05T12:15:54.481Z,101897.09
2023-02-05T12:18:51.988Z,101896.84
2023-02-05T12:21:49.246Z,101890.03
2023-02-05T12:24:48.533Z,101892.09
2023-02-05T12:27:48.851Z,101884.22
2023-02-05T12:30:49.264Z,101879.75
2023-02-05T12:33:54.374Z,101877.72
2023-02-05T12:36:53.658Z,101815.34
2023-02-05T12:39:47.354Z,101862.66
2023-02-05T12:42:38.109Z,101851.78
2023-02-05T12:45:36.569Z,101863.84
2023-02-05T12:48:46.872Z,101850.13
2023-02-05T12:51:47.421Z,101849.25
2023-02-05T12:54:47.967Z,101836.94
2023-02-05T12:57:41.826Z,101850.13
2023-02-05T13:00:34.910Z,101843.25
2023-02-05T13:03:28.394Z,101824.66
2023-02-05T13:06:18.868Z,101834.72
2023-02-05T13:09:13.263Z,101839.09
2023-02-05T13:12:06.222Z,101779.91
2023-02-05T13:14:59.756Z,101837.84
2023-02-05T13:17:56.342Z,101831.41
2023-02-05T13:21:04.348Z,101828.22
2023-02-05T13:24:11.946Z,101831.75
2023-02-05T13:27:18.250Z,101824.19
2023-02-05T13:30:12.689Z,101817.78
2023-02-05T13:33:04.224Z,101826.34
2023-02-05T13:35:59.006Z,101833.81
2023-02-05T13:38:58.804Z,101829.13
2023-02-05T13:42:06.189Z,101811.56
2023-02-05T13:45:15.019Z,101826.84
2023-02-05T13:48:14.440Z,101726.88
2023-02-05T13:51:34.490Z,101819.28
2023-02-05T13:54:47.735Z,101825.44
2023-02-05T13:58:05.908Z,101807.59
2023-02-05T14:00:59.866Z,101818.06
2023-02-05T14:03:58.680Z,101809.09
2023-02-05T14:06:56.227Z,101809.34
2023-02-05T14:09:52.616Z,101805.56
2023-02-05T14:12:41.199Z,101792.59
2023-02-05T14:15:41.475Z,101808.81
2023-02-05T14:18:51.269Z,101795.06
2023-02-05T14:22:03.025Z,101807.84
2023-02-05T14:24:51.565Z,101693.59
2023-02-05T14:27:51.086Z,101802.38
2023-02-05T14:30:51.474Z,101679.66
2023-02-05T14:33:40.987Z,101799.47
2023-02-05T14:36:36.432Z,101808.28
2023-02-05T14:39:30.270Z,101806.34
2023-02-05T14:42:21.446Z,101798.94
2023-02-05T14:45:15.175Z,101810.88
2023-02-05T14:48:03.738Z,101810.09
2023-02-05T14:51:04.624Z,101772.31
2023-02-05T14:53:59.385Z,101815.03
2023-02-05T14:56:49.745Z,101827.97
2023-02-05T14:59:43.651Z,101833.16
2023-02-05T15:02:54.978Z,101831.47
2023-02-05T15:05:50.215Z,101824.59
2023-02-05T15:08:45.480Z,101836.94
2023-02-05T15:11:48.772Z,101845.59
2023-02-05T15:14:44.358Z,101836.59
2023-02-05T15:17:53.925Z,101839.66
2023-02-05T15:20:47.589Z,101834.00
2023-02-05T15:23:37.237Z,101834.28
2023-02-05T15:26:30.483Z,101833.28
2023-02-05T15:29:23.429Z,101835.09
2023-02-05T15:32:19.024Z,101753.16
2023-02-05T15:35:11.938Z,101826.84
2023-02-05T15:38:04.148Z,101834.56
2023-02-05T15:40:53.087Z,101822.25
2023-02-05T15:43:41.605Z,101831.53
2023-02-05T15:46:32.706Z,101747.59
2023-02-05T15:49:22.641Z,101840.66
2023-02-05T15:52:17.549Z,101782.34
2023-02-05T15:55:12.916Z,101852.38
2023-02-05T15:58:06.372Z,101847.31
2023-02-05T16:00:56.532Z,101839.59
2023-02-05T16:03:46.391Z,101842.94
2023-02-05T16:06:37.931Z,101851.78
2023-02-05T16:09:28.339Z,101798.44
2023-02-05T16:12:16.998Z,101866.22
2023-02-05T16:15:07.630Z,101864.53
2023-02-05T16:17:59.595Z,101878.41
2023-02-05T16:20:52.256Z,101883.84
2023-02-05T16:23:42.937Z,101882.25
2023-02-05T16:26:34.529Z,101888.56
2023-02-05T16:29:31.531Z,101884.47
2023-02-05T16:32:27.500Z,101892.59
2023-02-05T16:35:22.861Z,101890.44
2023-02-05T16:38:16.500Z,101905.28
2023-02-05T16:41:19.511Z,101909.94
2023-02-05T16:44:11.202Z,101866.59
2023-02-05T16:47:16.026Z,101911.50
2023-02-05T16:50:35.055Z,101910.78
2023-02-05T16:53:27.119Z,101890.94
2023-02-05T16:56:22.512Z,101924.66
2023-02-05T16:59:17.859Z,101858.00
2023-02-05T17:02:08.679Z,101901.38
2023-02-05T17:04:57.768Z,101938.00
2023-02-05T17:07:55.065Z,101944.16
2023-02-05T17:10:52.638Z,101933.47
2023-02-05T17:13:42.911Z,101948.84
2023-02-05T17:16:32.668Z,101946.53
2023-02-05T17:19:26.582Z,101958.81
2023-02-05T17:22:20.495Z,101962.19
2023-02-05T17:25:08.983Z,101966.41
2023-02-05T17:27:58.823Z,101966.72
2023-02-05T17:30:48.770Z,101974.66
2023-02-05T17:33:37.222Z,101956.53
2023-02-05T17:36:25.991Z,101976.81
2023-02-05T17:39:14.502Z,101989.38
2023-02-05T17:42:07.737Z,101980.56
2023-02-05T17:44:57.737Z,101987.00
2023-02-05T17:47:46.462Z,101962.09
2023-02-05T17:50:36.444Z,101975.75
2023-02-05T17:53:25.119Z,101983.50
2023-02-05T17:56:14.560Z,101985.69
2023-02-05T17:59:03.055Z,101992.38
2023-02-05T18:01:53.506Z,101987.28
2023-02-05T18:04:43.486Z,101990.94
2023-02-05T18:07:35.016Z,102002.28
2023-02-05T18:10:25.312Z,101994.16
2023-02-05T18:13:15.360Z,101995.41
2023-02-05T18:16:04.359Z,102004.94
2023-02-05T18:18:54.274Z,102003.53
2023-02-05T18:21:42.729Z,102002.53
2023-02-05T18:24:31.221Z,102005.72
2023-02-05T18:27:19.997Z,101996.66
2023-02-05T18:30:09.910Z,102014.09
2023-02-05T18:32:58.382Z,102019.28
2023-02-05T18:35:48.205Z,102021.09
2023-02-05T18:38:37.180Z,102025.31
2023-02-05T18:41:28.446Z,102028.09
2023-02-05T18:44:16.913Z,102027.28
2023-02-05T18:47:05.980Z,102030.31
2023-02-05T18:49:55.118Z,102042.13
2023-02-05T18:52:44.930Z,102046.28
2023-02-05T18:55:35.599Z,102053.66
2023-02-05T18:58:24.081Z,102044.22
2023-02-05T19:01:14.255Z,102052.09
2023-02-05T19:04:04.337Z,102065.16
2023-02-05T19:06:53.630Z,102076.03
2023-02-05T19:09:43.571Z,102022.88
2023-02-05T19:12:32.182Z,102088.28
2023-02-05T19:15:20.829Z,102040.28
2023-02-05T19:18:09.393Z,102082.69
2023-02-05T19:20:57.923Z,102093.09
2023-02-05T19:23:47.606Z,102088.63
2023-02-05T19:26:39.351Z,102091.50
2023-02-05T19:29:28.436Z,102087.91
2023-02-05T19:32:16.971Z,102093.72
2023-02-05T19:35:05.750Z,102091.75
2023-02-05T19:37:54.284Z,102091.16
2023-02-05T19:40:42.778Z,102086.09
2023-02-05T19:43:32.821Z,102091.66
2023-02-05T19:46:23.172Z,102098.78
2023-02-05T19:49:14.012Z,102092.50
2023-02-05T19:52:02.595Z,102088.25
2023-02-05T19:54:51.057Z,102113.66
2023-02-05T19:57:43.291Z,102118.16
2023-02-05T20:00:33.309Z,102118.84
2023-02-05T20:03:22.018Z,102110.16
2023-02-05T20:06:11.403Z,102110.88
2023-02-05T20:09:01.178Z,102093.94
2023-02-05T20:11:52.528Z,102110.28
2023-02-05T20:14:41.023Z,102106.78
2023-02-05T20:17:30.923Z,102110.63
2023-02-05T20:20:44.900Z,102110.13
2023-02-05T20:23:28.406Z,102103.75
2023-02-05T20:26:18.952Z,102118.03
2023-02-05T20:29:25.251Z,102115.97
2023-02-05T20:32:13.766Z,102122.00
2023-02-05T20:35:03.668Z,102120.66
2023-02-05T20:37:52.150Z,102121.63
2023-02-05T20:40:40.564Z,102127.09
2023-02-05T20:43:29.075Z,102122.00
2023-02-05T20:46:18.068Z,102126.34
2023-02-05T20:49:06.659Z,102132.41
2023-02-05T20:51:56.514Z,102135.06
2023-02-05T20:54:45.052Z,102137.38
2023-02-05T20:57:33.593Z,102150.44
2023-02-05T21:00:27.637Z,102167.59
2023-02-05T21:03:16.179Z,102167.84
2023-02-05T21:06:05.314Z,102181.72
2023-02-05T21:08:55.834Z,102150.97
2023-02-05T21:11:44.329Z,102182.91
2023-02-05T21:14:32.927Z,102185.66
2023-02-05T21:17:21.518Z,102182.97
2023-02-05T21:20:10.660Z,102201.91
2023-02-05T21:22:59.724Z,102199.47
2023-02-05T21:25:49.630Z,102206.69
2023-02-05T21:28:38.209Z,102206.56
2023-02-05T21:31:33.624Z,102213.66
2023-02-05T21:34:23.405Z,102222.00
2023-02-05T21:37:11.972Z,102233.25
2023-02-05T21:40:08.804Z,102222.22
2023-02-05T21:42:59.366Z,102240.44
2023-02-05T21:45:47.928Z,102201.59
2023-02-05T21:48:36.830Z,102248.72
2023-02-05T21:51:27.392Z,102244.00
2023-02-05T21:54:16.152Z,102251.47
2023-02-05T21:57:04.867Z,102252.41
2023-02-05T21:59:54.699Z,102247.53
2023-02-05T22:02:43.263Z,102236.22
2023-02-05T22:05:31.799Z,102243.16
2023-02-05T22:08:20.320Z,102256.41
2023-02-05T22:11:10.869Z,102258.53
2023-02-05T22:13:59.470Z,102255.56
2023-02-05T22:16:49.386Z,102264.09
2023-02-05T22:19:37.849Z,102265.25
2023-02-05T22:22:26.314Z,102268.72
2023-02-05T22:25:14.789Z,102279.34
2023-02-05T22:28:03.385Z,102279.38
2023-02-05T22:30:51.964Z,102281.19
2023-02-05T22:33:43.393Z,102303.16
2023-02-05T22:36:33.208Z,102287.97
2023-02-05T22:39:21.677Z,102304.44
2023-02-05T22:42:19.098Z,102307.00
2023-02-05T22:45:08.256Z,102315.34
2023-02-05T22:47:56.742Z,102314.63
2023-02-05T22:50:46.976Z,102318.31
2023-02-05T22:53:35.867Z,102322.56
2023-02-05T22:56:24.925Z,102325.13
2023-02-05T22:59:13.861Z,102328.38
2023-02-05T23:02:02.323Z,102315.13
2023-02-05T23:04:50.865Z,102326.28
2023-02-05T23:07:40.738Z,102328.94
2023-02-05T23:10:29.738Z,102231.38
2023-02-05T23:13:18.164Z,102320.53
2023-02-05T23:16:08.643Z,102296.00
2023-02-05T23:18:58.276Z,102344.22
2023-02-05T23:21:46.955Z,102340.31
2023-02-05T23:24:38.020Z,102342.84
2023-02-05T23:27:27.342Z,102339.03
2023-02-05T23:30:16.752Z,102346.78
2023-02-05T23:33:05.198Z,102344.34
2023-02-05T23:35:53.807Z,102342.13
2023-02-05T23:38:42.320Z,102340.53
2023-02-05T23:41:39.549Z,102335.66
2023-02-05T23:44:28.128Z,102350.59
2023-02-05T23:47:16.594Z,102355.25
2023-02-05T23:50:05.677Z,102356.13
2023-02-05T23:52:54.148Z,102346.66
2023-02-05T23:55:44.037Z,102357.81
2023-02-05T23:58:33.862Z,102364.91
